createdAt,value
2023-06-21T00:03:55.452Z,0.00
2023-06-21T00:13:56.158Z,0.00
2023-06-21T00:23:56.713Z,0.00
2023-06-21T00:33:57.216Z,0.00
2023-06-21T00:43:57.791Z,0.00
2023-06-21T00:53:58.311Z,0.00
2023-06-21T01:03:58.874Z,0.00
2023-06-21T01:13:59.403Z,0.00
2023-06-21T01:24:00.144Z,0.00
2023-06-21T01:34:00.700Z,0.00
2023-06-21T01:44:01.311Z,0.00
2023-06-21T01:54:01.828Z,0.00
2023-06-21T02:04:02.407Z,0.00
2023-06-21T02:14:02.932Z,0.00
2023-06-21T02:24:03.507Z,0.00
2023-06-21T02:34:04.228Z,0.00
2023-06-21T02:44:04.887Z,0.00
2023-06-21T02:54:05.437Z,0.00
2023-06-21T03:04:06.097Z,1.00
2023-06-21T03:14:06.586Z,6.00
2023-06-21T03:24:07.173Z,2.00
2023-06-21T03:34:07.655Z,4.00
2023-06-21T03:44:15.176Z,8.00
2023-06-21T03:54:08.742Z,24.00
2023-06-21T04:04:09.323Z,99.00
2023-06-21T04:14:09.990Z,103.00
2023-06-21T04:24:10.501Z,54.00
2023-06-21T04:34:10.976Z,261.00
2023-06-21T04:44:11.515Z,150.00
2023-06-21T04:54:12.008Z,74.00
2023-06-21T05:04:12.495Z,166.00
2023-06-21T05:14:12.964Z,585.00
2023-06-21T05:24:13.598Z,1048.00
2023-06-21T05:34:14.057Z,271.00
2023-06-21T05:44:14.576Z,1010.00
2023-06-21T05:54:15.641Z,1949.00
2023-06-21T06:04:16.008Z,778.00
2023-06-21T06:14:16.471Z,1203.00
2023-06-21T06:24:16.994Z,399.00
2023-06-21T06:34:17.510Z,385.00
2023-06-21T06:44:18.109Z,1273.00
2023-06-21T06:54:18.551Z,1912.00
2023-06-21T07:04:19.220Z,391.00
2023-06-21T07:14:19.767Z,1968.00
2023-06-21T07:24:20.296Z,517.00
2023-06-21T07:34:20.739Z,1104.00
2023-06-21T07:44:21.259Z,2145.00
2023-06-21T07:54:21.731Z,431.00
2023-06-21T08:04:22.315Z,2147.00
2023-06-21T08:14:22.839Z,422.00
2023-06-21T08:24:23.347Z,2081.00
2023-06-21T08:34:23.835Z,470.00
2023-06-21T08:44:24.420Z,2295.00
2023-06-21T08:54:24.855Z,1511.00
2023-06-21T09:04:25.686Z,3409.00
2023-06-21T09:14:26.180Z,1890.00
2023-06-21T09:24:26.721Z,545.00
2023-06-21T09:34:27.152Z,3026.00
2023-06-21T09:44:27.726Z,2195.00
2023-06-21T09:54:28.195Z,992.00
2023-06-21T10:04:28.702Z,1491.00
2023-06-21T10:14:29.145Z,708.00
2023-06-21T10:24:29.670Z,3424.00
2023-06-21T10:34:30.140Z,4077.00
2023-06-21T10:44:30.696Z,4135.00
2023-06-21T10:54:31.156Z,2106.00
2023-06-21T11:04:38.997Z,1384.00
2023-06-21T11:14:33.533Z,805.00
2023-06-21T11:24:33.048Z,4894.00
2023-06-21T11:34:33.523Z,3647.00
2023-06-21T11:44:34.074Z,2534.00
2023-06-21T11:54:34.551Z,2003.00
2023-06-21T12:04:35.199Z,562.00
2023-06-21T12:14:35.759Z,2652.00
2023-06-21T12:24:43.289Z,3101.00
2023-06-21T12:34:36.734Z,4103.00
2023-06-21T12:44:37.246Z,4089.00
2023-06-21T12:54:37.719Z,1397.00
2023-06-21T13:04:38.418Z,582.00
2023-06-21T13:14:38.890Z,3867.00
2023-06-21T13:24:39.439Z,540.00
2023-06-21T13:34:39.883Z,4091.00
2023-06-21T13:44:40.412Z,4005.00
2023-06-21T13:54:40.870Z,2773.00
2023-06-21T14:04:41.570Z,3561.00
2023-06-21T14:14:42.073Z,3118.00
2023-06-21T14:24:42.590Z,2935.00
2023-06-21T14:34:43.067Z,2954.00
2023-06-21T14:44:43.593Z,2198.00
2023-06-21T14:54:44.188Z,2259.00
2023-06-21T15:04:44.744Z,2847.00
2023-06-21T15:14:45.221Z,1875.00
2023-06-21T15:24:45.736Z,371.00
2023-06-21T15:34:46.196Z,1591.00
2023-06-21T15:44:46.721Z,2014.00
2023-06-21T15:54:47.197Z,1098.00
2023-06-21T16:04:47.755Z,651.00
2023-06-21T16:14:48.189Z,1017.00
2023-06-21T16:24:48.699Z,1651.00
2023-06-21T16:34:49.188Z,994.00
2023-06-21T16:44:49.713Z,1061.00
2023-06-21T16:54:50.174Z,964.00
2023-06-21T17:04:50.700Z,1110.00
2023-06-21T17:14:51.160Z,938.00
2023-06-21T17:24:51.663Z,643.00
2023-06-21T17:34:52.122Z,344.00
2023-06-21T17:44:52.643Z,333.00
2023-06-21T17:54:53.109Z,123.00
2023-06-21T18:04:53.633Z,188.00
2023-06-21T18:14:54.163Z,744.00
2023-06-21T18:24:54.652Z,654.00
2023-06-21T18:34:55.111Z,475.00
2023-06-21T18:44:55.633Z,420.00
2023-06-21T18:54:56.106Z,320.00
2023-06-21T19:04:56.750Z,243.00
2023-06-21T19:14:57.365Z,182.00
2023-06-21T19:24:57.901Z,121.00
2023-06-21T19:34:58.356Z,70.00
2023-06-21T19:44:58.910Z,30.00
2023-06-21T19:54:59.357Z,11.00
2023-06-21T20:04:59.892Z,3.00
2023-06-21T20:15:00.358Z,1.00
2023-06-21T20:25:00.912Z,0.00
2023-06-21T20:35:01.444Z,0.00
2023-06-21T20:45:02.084Z,0.00
2023-06-21T20:55:02.656Z,0.00
2023-06-21T21:05:03.337Z,0.00
2023-06-21T21:15:03.881Z,0.00
2023-06-21T21:25:04.446Z,0.00
2023-06-21T21:35:04.968Z,0.00
2023-06-21T21:45:12.540Z,0.00
2023-06-21T21:55:06.102Z,0.00
2023-06-21T22:05:06.670Z,0.00
2023-06-21T22:15:07.202Z,0.00
2023-06-21T22:25:07.832Z,0.00
2023-06-21T22:35:08.337Z,0.00
2023-06-21T22:45:08.898Z,0.00
2023-06-21T22:55:09.412Z,0.00
2023-06-21T23:05:10.127Z,0.00
2023-06-21T23:15:10.677Z,0.00
2023-06-21T23:25:11.283Z,0.00
2023-06-21T23:35:11.802Z,0.00
2023-06-21T23:45:12.373Z,0.00
2023-06-21T23:55:12.908Z,0.00
